AXB5401 OEMA-VABB
Flight info
| Callsign | AXB5401 |
|---|---|
| Flight time | N/A |
| Altitude | 37000 |
| Route | MEDRO DCT GOKSA M872 BDB Y214 RAPMA/N0485F290 Y214 KUTNA M440 MIDGU/N0465F370 M440 TULBU N881 RASKI L301 KARKU M638 EXOLU POKON2A |
| Aircraft | B38M/M-SDE1FGHILORVWXY/HB1 |
Departure
| Time | 2026-05-08 12:07 |
|---|---|
| Airport | Prince Mohammad Bin Abdulaziz Airport (OEMA) |
Arrival
| Time | N/A |
|---|---|
| Airport | Chhatrapati Shivaji Maharaj International Airport (VABB) |
| Time | Latitude | Longitude | Altitude | Speed | Heading |
|---|---|---|---|---|---|
| 2026-05-08 11:49 | 24.55249 | 39.71324 | 2107 ft | 0 kts | 79° |
| 2026-05-08 11:59 | 24.55246 | 39.71298 | 2107 ft | 4 kts | 89° |
| 2026-05-08 11:59 | 24.55248 | 39.71269 | 2107 ft | 4 kts | 104° |
| 2026-05-08 11:59 | 24.55258 | 39.71242 | 2108 ft | 4 kts | 124° |
| 2026-05-08 11:59 | 24.55276 | 39.71223 | 2107 ft | 4 kts | 157° |
| 2026-05-08 12:00 | 24.55285 | 39.71219 | 2107 ft | 0 kts | 169° |
| 2026-05-08 12:02 | 24.55268 | 39.71219 | 2107 ft | 6 kts | 193° |
| 2026-05-08 12:02 | 24.55238 | 39.71153 | 2109 ft | 14 kts | 260° |
| 2026-05-08 12:03 | 24.55202 | 39.71055 | 2109 ft | 14 kts | 207° |
| 2026-05-08 12:03 | 24.55106 | 39.71064 | 2109 ft | 15 kts | 169° |
| 2026-05-08 12:03 | 24.55002 | 39.71086 | 2109 ft | 16 kts | 169° |
| 2026-05-08 12:03 | 24.54890 | 39.71108 | 2109 ft | 17 kts | 168° |
| 2026-05-08 12:04 | 24.54769 | 39.71134 | 2110 ft | 19 kts | 169° |
| 2026-05-08 12:04 | 24.54620 | 39.71165 | 2109 ft | 25 kts | 168° |
| 2026-05-08 12:04 | 24.54442 | 39.71204 | 2109 ft | 27 kts | 169° |
| 2026-05-08 12:04 | 24.54259 | 39.71243 | 2109 ft | 28 kts | 169° |
| 2026-05-08 12:05 | 24.54070 | 39.71284 | 2110 ft | 28 kts | 169° |
| 2026-05-08 12:05 | 24.53906 | 39.71319 | 2110 ft | 19 kts | 169° |
| 2026-05-08 12:05 | 24.53824 | 39.71246 | 2112 ft | 17 kts | 258° |
| 2026-05-08 12:05 | 24.53814 | 39.71169 | 2114 ft | 8 kts | 281° |
| 2026-05-08 12:06 | 24.53860 | 39.71136 | 2114 ft | 9 kts | 352° |
| 2026-05-08 12:06 | 24.53966 | 39.71114 | 2113 ft | 37 kts | 349° |
| 2026-05-08 12:06 | 24.54432 | 39.71016 | 2115 ft | 97 kts | 349° |
| 2026-05-08 12:06 | 24.55271 | 39.70838 | 2111 ft | 147 kts | 349° |
| 2026-05-08 12:07 | 24.56408 | 39.70595 | 2123 ft | 185 kts | 348° |
| 2026-05-08 12:07 | 24.57726 | 39.70318 | 2384 ft | 202 kts | 348° |
| 2026-05-08 12:07 | 24.59163 | 39.70021 | 2884 ft | 207 kts | 345° |
| 2026-05-08 12:07 | 24.60532 | 39.69722 | 3784 ft | 196 kts | 346° |
| 2026-05-08 12:08 | 24.61939 | 39.69418 | 4138 ft | 217 kts | 346° |
| 2026-05-08 12:08 | 24.63485 | 39.69087 | 4379 ft | 241 kts | 346° |
| 2026-05-08 12:08 | 24.65207 | 39.68720 | 4815 ft | 257 kts | 346° |
| 2026-05-08 12:08 | 24.67011 | 39.68338 | 5272 ft | 273 kts | 346° |
| 2026-05-08 12:09 | 24.68884 | 39.67941 | 5860 ft | 283 kts | 346° |
| 2026-05-08 12:09 | 24.70838 | 39.67526 | 6600 ft | 286 kts | 346° |
| 2026-05-08 12:09 | 24.72805 | 39.67106 | 7316 ft | 290 kts | 346° |
| 2026-05-08 12:09 | 24.74795 | 39.66682 | 8032 ft | 294 kts | 346° |
| 2026-05-08 12:10 | 24.76803 | 39.66254 | 8739 ft | 298 kts | 346° |
| 2026-05-08 12:10 | 24.78852 | 39.65816 | 9501 ft | 302 kts | 346° |
| 2026-05-08 12:10 | 24.80917 | 39.65421 | 10216 ft | 308 kts | 353° |
| 2026-05-08 12:10 | 24.83126 | 39.65697 | 10562 ft | 332 kts | 18° |
| 2026-05-08 12:11 | 24.85149 | 39.67051 | 10908 ft | 353 kts | 44° |
| 2026-05-08 12:11 | 24.86520 | 39.69329 | 11256 ft | 365 kts | 72° |
| 2026-05-08 12:11 | 24.87015 | 39.72100 | 11714 ft | 374 kts | 83° |
| 2026-05-08 12:11 | 24.87500 | 39.74948 | 12247 ft | 381 kts | 81° |
| 2026-05-08 12:12 | 24.88023 | 39.77820 | 12939 ft | 385 kts | 81° |
| 2026-05-08 12:12 | 24.88562 | 39.80732 | 13544 ft | 391 kts | 81° |
| 2026-05-08 12:12 | 24.89097 | 39.83607 | 14193 ft | 393 kts | 81° |
| 2026-05-08 12:12 | 24.89515 | 39.86579 | 14801 ft | 393 kts | 91° |
| 2026-05-08 12:13 | 24.89503 | 39.89599 | 15362 ft | 397 kts | 93° |
| 2026-05-08 12:13 | 24.89493 | 39.92635 | 15910 ft | 401 kts | 93° |
| 2026-05-08 12:13 | 24.89480 | 39.95728 | 16489 ft | 405 kts | 92° |
| 2026-05-08 12:13 | 24.89465 | 39.98801 | 17041 ft | 409 kts | 92° |
| 2026-05-08 12:14 | 24.89448 | 40.01942 | 17609 ft | 413 kts | 92° |
| 2026-05-08 12:14 | 24.89429 | 40.05121 | 18135 ft | 417 kts | 92° |
| 2026-05-08 12:14 | 24.89288 | 40.08314 | 18567 ft | 419 kts | 103° |
| 2026-05-08 12:14 | 24.88413 | 40.11343 | 19048 ft | 414 kts | 120° |
| 2026-05-08 12:15 | 24.86818 | 40.13973 | 19431 ft | 413 kts | 135° |
| 2026-05-08 12:15 | 24.84909 | 40.16351 | 19889 ft | 416 kts | 136° |
| 2026-05-08 12:15 | 24.82955 | 40.18690 | 20334 ft | 419 kts | 137° |
| 2026-05-08 12:15 | 24.80944 | 40.21041 | 20799 ft | 423 kts | 137° |
| 2026-05-08 12:16 | 24.78906 | 40.23393 | 21248 ft | 426 kts | 137° |
| 2026-05-08 12:16 | 24.76845 | 40.25753 | 21693 ft | 430 kts | 137° |
| 2026-05-08 12:16 | 24.74754 | 40.28137 | 22128 ft | 433 kts | 138° |
| 2026-05-08 12:16 | 24.72651 | 40.30534 | 22570 ft | 437 kts | 137° |
| 2026-05-08 12:17 | 24.70548 | 40.32961 | 22997 ft | 440 kts | 137° |
| 2026-05-08 12:17 | 24.68423 | 40.35413 | 23430 ft | 443 kts | 137° |
| 2026-05-08 12:17 | 24.66291 | 40.37868 | 23803 ft | 446 kts | 137° |
| 2026-05-08 12:17 | 24.64144 | 40.40341 | 24197 ft | 449 kts | 137° |
| 2026-05-08 12:18 | 24.62005 | 40.42802 | 24572 ft | 451 kts | 137° |
| 2026-05-08 12:18 | 24.59832 | 40.45301 | 24938 ft | 453 kts | 138° |
| 2026-05-08 12:18 | 24.57647 | 40.47812 | 25292 ft | 456 kts | 138° |
| 2026-05-08 12:18 | 24.55455 | 40.50330 | 25714 ft | 456 kts | 139° |
| 2026-05-08 12:19 | 24.53259 | 40.52853 | 26092 ft | 457 kts | 139° |
| 2026-05-08 12:19 | 24.51054 | 40.55383 | 26426 ft | 460 kts | 139° |
| 2026-05-08 12:19 | 24.48852 | 40.57920 | 26750 ft | 463 kts | 137° |
| 2026-05-08 12:19 | 24.46945 | 40.60824 | 27057 ft | 475 kts | 122° |
| 2026-05-08 12:20 | 24.45755 | 40.64198 | 27423 ft | 485 kts | 107° |
| 2026-05-08 12:20 | 24.45237 | 40.67888 | 27743 ft | 492 kts | 100° |
| 2026-05-08 12:20 | 24.44819 | 40.71625 | 28042 ft | 495 kts | 100° |
| 2026-05-08 12:20 | 24.44414 | 40.75396 | 28400 ft | 497 kts | 100° |
| 2026-05-08 12:21 | 24.44022 | 40.79178 | 28747 ft | 499 kts | 100° |
| 2026-05-08 12:21 | 24.43631 | 40.82969 | 29009 ft | 502 kts | 100° |
| 2026-05-08 12:21 | 24.43239 | 40.86776 | 29301 ft | 505 kts | 100° |
| 2026-05-08 12:21 | 24.42843 | 40.90612 | 29591 ft | 507 kts | 100° |
| 2026-05-08 12:22 | 24.42443 | 40.94467 | 29864 ft | 509 kts | 101° |
| 2026-05-08 12:22 | 24.42042 | 40.98339 | 30160 ft | 511 kts | 101° |
| 2026-05-08 12:22 | 24.41643 | 41.02179 | 30392 ft | 513 kts | 101° |
| 2026-05-08 12:22 | 24.41237 | 41.06079 | 30654 ft | 514 kts | 101° |
| 2026-05-08 12:23 | 24.40828 | 41.09997 | 30904 ft | 516 kts | 101° |
| 2026-05-08 12:23 | 24.40421 | 41.13889 | 31132 ft | 518 kts | 101° |
| 2026-05-08 12:23 | 24.40009 | 41.17814 | 31444 ft | 518 kts | 102° |
| 2026-05-08 12:23 | 24.39597 | 41.21737 | 31775 ft | 517 kts | 102° |
| 2026-05-08 12:24 | 24.39184 | 41.25661 | 32122 ft | 517 kts | 102° |
| 2026-05-08 12:24 | 24.38770 | 41.29578 | 32465 ft | 516 kts | 102° |
| 2026-05-08 12:24 | 24.38360 | 41.33444 | 32801 ft | 515 kts | 102° |
| 2026-05-08 12:24 | 24.37941 | 41.37395 | 33110 ft | 515 kts | 103° |
| 2026-05-08 12:25 | 24.37531 | 41.41238 | 33413 ft | 515 kts | 103° |
| 2026-05-08 12:25 | 24.37114 | 41.45150 | 33734 ft | 515 kts | 103° |
| 2026-05-08 12:25 | 24.36697 | 41.49052 | 34030 ft | 515 kts | 103° |
| 2026-05-08 12:25 | 24.36278 | 41.52953 | 34301 ft | 515 kts | 103° |
| 2026-05-08 12:26 | 24.35859 | 41.56858 | 34549 ft | 515 kts | 104° |
| 2026-05-08 12:26 | 24.35439 | 41.60752 | 34804 ft | 514 kts | 104° |
| 2026-05-08 12:26 | 24.35018 | 41.64650 | 35004 ft | 514 kts | 104° |
| 2026-05-08 12:26 | 24.34600 | 41.68514 | 35028 ft | 514 kts | 104° |
| 2026-05-08 12:27 | 24.33756 | 41.76278 | 35027 ft | 511 kts | 104° |
| 2026-05-08 12:27 | 24.32696 | 41.83929 | 35000 ft | 497 kts | 116° |
| 2026-05-08 12:28 | 24.30778 | 41.91215 | 35030 ft | 499 kts | 115° |
| 2026-05-08 12:28 | 24.28879 | 41.98458 | 35031 ft | 498 kts | 115° |
| 2026-05-08 12:29 | 24.26959 | 42.05750 | 35032 ft | 496 kts | 115° |
| 2026-05-08 12:29 | 24.25041 | 42.13016 | 35042 ft | 496 kts | 115° |
| 2026-05-08 12:30 | 24.23124 | 42.20262 | 35029 ft | 496 kts | 116° |
| 2026-05-08 12:30 | 24.21205 | 42.27504 | 35049 ft | 493 kts | 116° |
| 2026-05-08 12:31 | 24.19297 | 42.34687 | 35058 ft | 493 kts | 116° |
| 2026-05-08 12:31 | 24.17376 | 42.41904 | 35050 ft | 493 kts | 116° |
| 2026-05-08 12:32 | 24.15462 | 42.49081 | 35072 ft | 492 kts | 116° |
| 2026-05-08 12:32 | 24.13537 | 42.56282 | 35081 ft | 492 kts | 116° |
| 2026-05-08 12:33 | 24.11613 | 42.63470 | 35080 ft | 492 kts | 116° |
| 2026-05-08 12:33 | 24.09677 | 42.70681 | 35098 ft | 494 kts | 116° |
| 2026-05-08 12:34 | 24.07756 | 42.77824 | 35097 ft | 494 kts | 116° |
| 2026-05-08 12:34 | 24.05814 | 42.85035 | 35101 ft | 494 kts | 116° |
| 2026-05-08 12:35 | 24.03869 | 42.92234 | 35104 ft | 493 kts | 116° |
| 2026-05-08 12:35 | 24.01925 | 42.99419 | 35102 ft | 493 kts | 116° |
| 2026-05-08 12:36 | 23.99972 | 43.06620 | 35110 ft | 494 kts | 115° |
| 2026-05-08 12:36 | 23.98010 | 43.13842 | 35080 ft | 495 kts | 115° |
| 2026-05-08 12:37 | 23.96048 | 43.21047 | 35099 ft | 495 kts | 115° |
| 2026-05-08 12:37 | 23.94090 | 43.28223 | 35088 ft | 493 kts | 115° |
| 2026-05-08 12:38 | 23.92141 | 43.35351 | 35079 ft | 492 kts | 115° |
| 2026-05-08 12:38 | 23.90180 | 43.42510 | 35079 ft | 492 kts | 115° |
| 2026-05-08 12:39 | 23.88213 | 43.49676 | 35065 ft | 490 kts | 115° |
| 2026-05-08 12:39 | 23.86259 | 43.56781 | 35059 ft | 490 kts | 115° |
| 2026-05-08 12:40 | 23.84296 | 43.63908 | 35033 ft | 489 kts | 115° |
| 2026-05-08 12:40 | 23.82343 | 43.70980 | 35037 ft | 490 kts | 115° |
| 2026-05-08 12:41 | 23.80377 | 43.78088 | 35030 ft | 489 kts | 115° |
| 2026-05-08 12:41 | 23.78727 | 43.84045 | 35002 ft | 489 kts | 115° |
| 2026-05-08 12:42 | 23.77228 | 43.91305 | 35006 ft | 505 kts | 101° |
| 2026-05-08 12:42 | 23.76655 | 43.98942 | 34995 ft | 505 kts | 102° |
| 2026-05-08 12:43 | 23.76079 | 44.06585 | 34991 ft | 506 kts | 102° |
| 2026-05-08 12:43 | 23.75505 | 44.14245 | 34991 ft | 506 kts | 102° |
| 2026-05-08 12:44 | 23.74933 | 44.21850 | 34998 ft | 504 kts | 102° |
| 2026-05-08 12:44 | 23.74354 | 44.29489 | 35000 ft | 506 kts | 102° |
| 2026-05-08 12:45 | 23.73770 | 44.37143 | 34991 ft | 506 kts | 102° |
| 2026-05-08 12:45 | 23.73184 | 44.44797 | 34979 ft | 506 kts | 102° |
| 2026-05-08 12:46 | 23.72594 | 44.52419 | 34990 ft | 506 kts | 102° |
| 2026-05-08 12:46 | 23.72001 | 44.60050 | 34998 ft | 506 kts | 102° |
| 2026-05-08 12:47 | 23.71403 | 44.67690 | 34990 ft | 502 kts | 101° |
| 2026-05-08 12:47 | 23.70806 | 44.75265 | 34984 ft | 501 kts | 101° |
| 2026-05-08 12:48 | 23.70205 | 44.82853 | 34986 ft | 501 kts | 101° |
| 2026-05-08 12:48 | 23.69602 | 44.90408 | 34982 ft | 501 kts | 101° |
| 2026-05-08 12:49 | 23.68997 | 44.97938 | 34983 ft | 502 kts | 102° |
| 2026-05-08 12:49 | 23.68384 | 45.05539 | 34969 ft | 501 kts | 101° |
| 2026-05-08 12:50 | 23.67767 | 45.13117 | 34985 ft | 504 kts | 101° |
| 2026-05-08 12:50 | 23.67143 | 45.20748 | 34974 ft | 504 kts | 102° |
| 2026-05-08 12:51 | 23.66198 | 45.32200 | 34975 ft | 505 kts | 102° |
| 2026-05-08 12:52 | 23.65567 | 45.39791 | 34962 ft | 505 kts | 102° |
| 2026-05-08 12:52 | 23.64609 | 45.51240 | 34949 ft | 507 kts | 102° |
| 2026-05-08 12:53 | 23.63963 | 45.58894 | 34945 ft | 506 kts | 101° |
| 2026-05-08 12:53 | 23.63314 | 45.66548 | 34953 ft | 506 kts | 101° |
| 2026-05-08 12:54 | 23.62668 | 45.74120 | 34951 ft | 506 kts | 102° |
| 2026-05-08 12:54 | 23.62012 | 45.81766 | 34938 ft | 505 kts | 102° |
| 2026-05-08 12:55 | 23.61353 | 45.89405 | 34941 ft | 505 kts | 102° |
| 2026-05-08 12:55 | 23.60694 | 45.97006 | 34937 ft | 505 kts | 102° |
| 2026-05-08 12:56 | 23.60028 | 46.04634 | 34938 ft | 505 kts | 102° |
| 2026-05-08 12:56 | 23.59358 | 46.12265 | 34941 ft | 505 kts | 102° |
| 2026-05-08 12:57 | 23.58689 | 46.19850 | 34940 ft | 506 kts | 102° |
| 2026-05-08 12:57 | 23.58014 | 46.27461 | 34938 ft | 505 kts | 102° |
| 2026-05-08 12:58 | 23.57333 | 46.35089 | 34943 ft | 506 kts | 102° |
| 2026-05-08 12:58 | 23.56648 | 46.42726 | 34949 ft | 506 kts | 102° |
| 2026-05-08 12:59 | 23.55964 | 46.50314 | 34947 ft | 505 kts | 102° |
| 2026-05-08 12:59 | 23.55274 | 46.57900 | 34932 ft | 506 kts | 102° |
| 2026-05-08 13:00 | 23.54579 | 46.65522 | 34933 ft | 504 kts | 102° |
| 2026-05-08 13:00 | 23.53881 | 46.73126 | 34922 ft | 503 kts | 102° |
| 2026-05-08 13:01 | 23.53181 | 46.80699 | 34926 ft | 504 kts | 102° |
| 2026-05-08 13:01 | 23.52476 | 46.88299 | 34911 ft | 504 kts | 102° |
| 2026-05-08 13:02 | 23.51772 | 46.95849 | 34913 ft | 504 kts | 102° |
| 2026-05-08 13:02 | 23.51062 | 47.03424 | 34900 ft | 503 kts | 102° |
| 2026-05-08 13:03 | 23.50346 | 47.11014 | 34898 ft | 503 kts | 102° |
| 2026-05-08 13:03 | 23.49629 | 47.18586 | 34889 ft | 501 kts | 102° |
| 2026-05-08 13:04 | 23.48909 | 47.26135 | 34887 ft | 501 kts | 102° |
| 2026-05-08 13:04 | 23.48188 | 47.33664 | 34886 ft | 501 kts | 102° |
| 2026-05-08 13:05 | 23.47462 | 47.41218 | 34879 ft | 501 kts | 102° |
| 2026-05-08 13:05 | 23.46738 | 47.48713 | 34875 ft | 501 kts | 102° |
| 2026-05-08 13:06 | 23.46004 | 47.56255 | 34873 ft | 501 kts | 102° |
| 2026-05-08 13:06 | 23.45268 | 47.63786 | 34868 ft | 501 kts | 102° |
| 2026-05-08 13:07 | 23.44529 | 47.71320 | 34860 ft | 500 kts | 102° |
| 2026-05-08 13:07 | 23.43787 | 47.78844 | 34858 ft | 499 kts | 102° |
| 2026-05-08 13:08 | 23.43042 | 47.86358 | 34856 ft | 500 kts | 102° |
| 2026-05-08 13:08 | 23.42297 | 47.93832 | 34847 ft | 500 kts | 102° |
| 2026-05-08 13:09 | 23.41543 | 48.01366 | 34839 ft | 500 kts | 102° |
| 2026-05-08 13:09 | 23.40786 | 48.08890 | 34841 ft | 500 kts | 102° |
| 2026-05-08 13:10 | 23.40028 | 48.16392 | 34834 ft | 500 kts | 102° |
| 2026-05-08 13:10 | 23.39264 | 48.23916 | 34816 ft | 500 kts | 102° |
| 2026-05-08 13:11 | 23.38498 | 48.31430 | 34826 ft | 499 kts | 102° |
| 2026-05-08 13:11 | 23.38120 | 48.38982 | 34841 ft | 502 kts | 97° |
| 2026-05-08 13:12 | 23.37830 | 48.46443 | 34822 ft | 501 kts | 97° |
| 2026-05-08 13:12 | 23.37510 | 48.54024 | 34825 ft | 501 kts | 97° |
| 2026-05-08 13:13 | 23.37186 | 48.61603 | 34820 ft | 501 kts | 97° |
| 2026-05-08 13:13 | 23.36860 | 48.69145 | 34815 ft | 501 kts | 97° |
| 2026-05-08 13:14 | 23.36529 | 48.76713 | 34818 ft | 500 kts | 98° |
| 2026-05-08 13:14 | 23.36196 | 48.84237 | 34818 ft | 500 kts | 98° |
| 2026-05-08 13:15 | 23.35859 | 48.91792 | 34812 ft | 499 kts | 97° |
| 2026-05-08 13:15 | 23.35519 | 48.99315 | 34811 ft | 498 kts | 98° |
| 2026-05-08 13:16 | 23.35179 | 49.06856 | 34814 ft | 499 kts | 97° |
| 2026-05-08 13:16 | 23.34845 | 49.14389 | 34810 ft | 497 kts | 97° |
| 2026-05-08 13:17 | 23.34509 | 49.21893 | 34808 ft | 497 kts | 97° |
| 2026-05-08 13:17 | 23.34168 | 49.29415 | 34810 ft | 497 kts | 97° |
| 2026-05-08 13:18 | 23.33826 | 49.36885 | 34807 ft | 497 kts | 97° |
| 2026-05-08 13:18 | 23.33478 | 49.44399 | 34808 ft | 497 kts | 97° |
| 2026-05-08 13:19 | 23.33128 | 49.51898 | 34807 ft | 497 kts | 97° |
| 2026-05-08 13:19 | 23.32774 | 49.59416 | 34803 ft | 497 kts | 97° |
| 2026-05-08 13:20 | 23.32415 | 49.66924 | 34804 ft | 497 kts | 97° |
| 2026-05-08 13:20 | 23.32053 | 49.74435 | 34815 ft | 497 kts | 97° |
| 2026-05-08 13:21 | 23.31689 | 49.81930 | 34805 ft | 497 kts | 97° |
| 2026-05-08 13:21 | 23.31323 | 49.89379 | 34806 ft | 497 kts | 97° |
| 2026-05-08 13:22 | 23.30950 | 49.96893 | 34809 ft | 496 kts | 97° |
| 2026-05-08 13:22 | 23.30575 | 50.04386 | 34810 ft | 495 kts | 97° |
| 2026-05-08 13:23 | 23.30197 | 50.11865 | 34813 ft | 495 kts | 97° |
| 2026-05-08 13:23 | 23.29815 | 50.19349 | 34805 ft | 495 kts | 97° |
| 2026-05-08 13:24 | 23.29432 | 50.26782 | 34797 ft | 494 kts | 97° |
| 2026-05-08 13:24 | 23.29045 | 50.34214 | 34803 ft | 492 kts | 97° |
| 2026-05-08 13:25 | 23.28655 | 50.41650 | 34803 ft | 492 kts | 97° |
| 2026-05-08 13:25 | 23.28262 | 50.49076 | 34803 ft | 491 kts | 97° |
| 2026-05-08 13:26 | 23.27869 | 50.56431 | 34802 ft | 491 kts | 97° |
| 2026-05-08 13:26 | 23.27469 | 50.63868 | 34801 ft | 491 kts | 97° |
| 2026-05-08 13:27 | 23.27066 | 50.71283 | 34800 ft | 491 kts | 97° |
| 2026-05-08 13:27 | 23.26661 | 50.78659 | 34802 ft | 490 kts | 97° |
| 2026-05-08 13:28 | 23.26253 | 50.86041 | 34802 ft | 491 kts | 97° |
| 2026-05-08 13:28 | 23.25910 | 50.92207 | 34795 ft | 490 kts | 97° |
| 2026-05-08 13:29 | 23.25427 | 51.00818 | 34797 ft | 490 kts | 97° |
| 2026-05-08 13:29 | 23.25008 | 51.08216 | 34799 ft | 490 kts | 97° |
| 2026-05-08 13:30 | 23.24656 | 51.14385 | 34795 ft | 490 kts | 97° |
| 2026-05-08 13:30 | 23.24227 | 51.21743 | 34796 ft | 490 kts | 97° |
| 2026-05-08 13:31 | 23.23794 | 51.29141 | 34796 ft | 490 kts | 97° |
| 2026-05-08 13:31 | 23.23360 | 51.36529 | 34790 ft | 490 kts | 97° |
| 2026-05-08 13:32 | 23.22893 | 51.43906 | 34788 ft | 488 kts | 101° |
| 2026-05-08 13:32 | 23.22078 | 51.47392 | 34776 ft | 477 kts | 116° |
| 2026-05-08 13:32 | 23.20819 | 51.50745 | 34790 ft | 480 kts | 116° |
| 2026-05-08 13:33 | 23.18290 | 51.57458 | 34784 ft | 479 kts | 116° |
| 2026-05-08 13:33 | 23.15724 | 51.64092 | 34790 ft | 480 kts | 116° |
| 2026-05-08 13:34 | 23.13125 | 51.70775 | 34791 ft | 480 kts | 116° |
| 2026-05-08 13:34 | 23.10526 | 51.77449 | 34792 ft | 480 kts | 116° |
| 2026-05-08 13:35 | 23.07924 | 51.84119 | 34794 ft | 480 kts | 116° |
| 2026-05-08 13:35 | 23.05352 | 51.90706 | 34791 ft | 480 kts | 117° |
| 2026-05-08 13:36 | 23.02742 | 51.97379 | 34791 ft | 480 kts | 117° |
| 2026-05-08 13:36 | 23.00148 | 52.04002 | 34790 ft | 480 kts | 117° |
| 2026-05-08 13:37 | 22.97532 | 52.10675 | 34782 ft | 480 kts | 117° |
| 2026-05-08 13:37 | 22.94925 | 52.17315 | 34785 ft | 480 kts | 117° |
| 2026-05-08 13:38 | 22.92309 | 52.23970 | 34783 ft | 479 kts | 117° |
| 2026-05-08 13:38 | 22.89685 | 52.30633 | 34784 ft | 479 kts | 117° |
| 2026-05-08 13:39 | 22.87079 | 52.37242 | 34787 ft | 479 kts | 116° |
| 2026-05-08 13:39 | 22.84460 | 52.43874 | 34785 ft | 479 kts | 117° |
| 2026-05-08 13:40 | 22.82295 | 52.50701 | 34766 ft | 484 kts | 100° |
| 2026-05-08 13:40 | 22.81385 | 52.57958 | 34767 ft | 486 kts | 101° |
| 2026-05-08 13:41 | 22.80490 | 52.65216 | 34779 ft | 487 kts | 100° |
| 2026-05-08 13:41 | 22.79607 | 52.72491 | 34779 ft | 487 kts | 100° |
| 2026-05-08 13:42 | 22.78727 | 52.79717 | 34774 ft | 487 kts | 100° |
| 2026-05-08 13:42 | 22.77838 | 52.87002 | 34774 ft | 487 kts | 101° |
| 2026-05-08 13:43 | 22.76949 | 52.94249 | 34779 ft | 486 kts | 100° |
| 2026-05-08 13:43 | 22.76055 | 53.01521 | 34769 ft | 486 kts | 100° |
| 2026-05-08 13:44 | 22.75158 | 53.08780 | 34771 ft | 486 kts | 100° |
| 2026-05-08 13:44 | 22.74260 | 53.16022 | 34776 ft | 486 kts | 100° |
| 2026-05-08 13:45 | 22.73359 | 53.23258 | 34772 ft | 486 kts | 100° |
| 2026-05-08 13:45 | 22.72454 | 53.30506 | 34770 ft | 486 kts | 100° |
| 2026-05-08 13:46 | 22.71547 | 53.37736 | 34773 ft | 486 kts | 100° |
| 2026-05-08 13:46 | 22.70634 | 53.44994 | 34769 ft | 486 kts | 101° |
| 2026-05-08 13:47 | 22.69719 | 53.52245 | 34771 ft | 486 kts | 101° |
| 2026-05-08 13:47 | 22.68799 | 53.59502 | 34766 ft | 486 kts | 100° |
| 2026-05-08 13:48 | 22.67876 | 53.66755 | 34770 ft | 486 kts | 100° |
| 2026-05-08 13:48 | 22.66954 | 53.73988 | 34769 ft | 486 kts | 100° |
| 2026-05-08 13:49 | 22.66025 | 53.81238 | 34768 ft | 486 kts | 100° |
| 2026-05-08 13:49 | 22.65096 | 53.88469 | 34765 ft | 485 kts | 100° |
| 2026-05-08 13:50 | 22.64167 | 53.95673 | 34766 ft | 485 kts | 100° |
| 2026-05-08 13:50 | 22.63233 | 54.02893 | 34765 ft | 485 kts | 100° |
| 2026-05-08 13:51 | 22.62292 | 54.10133 | 34763 ft | 485 kts | 100° |
| 2026-05-08 13:51 | 22.61348 | 54.17374 | 34761 ft | 485 kts | 100° |
| 2026-05-08 13:52 | 22.60402 | 54.24611 | 34760 ft | 485 kts | 100° |
| 2026-05-08 13:52 | 22.59461 | 54.31757 | 34759 ft | 484 kts | 100° |
| 2026-05-08 13:53 | 22.58514 | 54.38932 | 34759 ft | 484 kts | 100° |
| 2026-05-08 13:53 | 22.57557 | 54.46156 | 34757 ft | 484 kts | 100° |
| 2026-05-08 13:54 | 22.56601 | 54.53351 | 34757 ft | 484 kts | 100° |
| 2026-05-08 13:54 | 22.55643 | 54.60529 | 34755 ft | 484 kts | 100° |
| 2026-05-08 13:55 | 22.54678 | 54.67740 | 34754 ft | 484 kts | 100° |
| 2026-05-08 13:56 | 22.53223 | 54.78563 | 34754 ft | 484 kts | 100° |
| 2026-05-08 13:56 | 22.52257 | 54.85714 | 34756 ft | 484 kts | 100° |
| 2026-05-08 13:57 | 22.51281 | 54.92924 | 34754 ft | 483 kts | 100° |
| 2026-05-08 13:57 | 22.50302 | 55.00120 | 34755 ft | 483 kts | 100° |
| 2026-05-08 13:58 | 22.49329 | 55.07252 | 34756 ft | 483 kts | 100° |
| 2026-05-08 13:58 | 22.48345 | 55.14444 | 34758 ft | 483 kts | 100° |
| 2026-05-08 13:59 | 22.47356 | 55.21646 | 34759 ft | 483 kts | 100° |
| 2026-05-08 13:59 | 22.46371 | 55.28802 | 34761 ft | 483 kts | 100° |
| 2026-05-08 14:00 | 22.45599 | 55.35978 | 34747 ft | 484 kts | 88° |
| 2026-05-08 14:00 | 22.46137 | 55.39564 | 34766 ft | 485 kts | 73° |
| 2026-05-08 14:00 | 22.47326 | 55.42993 | 34768 ft | 488 kts | 69° |
| 2026-05-08 14:01 | 22.49814 | 55.49824 | 34769 ft | 489 kts | 69° |
| 2026-05-08 14:01 | 22.52347 | 55.56602 | 34762 ft | 488 kts | 68° |
| 2026-05-08 14:02 | 22.54887 | 55.63383 | 34769 ft | 488 kts | 68° |
| 2026-05-08 14:02 | 22.57434 | 55.70190 | 34769 ft | 488 kts | 68° |
| 2026-05-08 14:03 | 22.59977 | 55.76996 | 34763 ft | 488 kts | 69° |
| 2026-05-08 14:03 | 22.62519 | 55.83808 | 34768 ft | 487 kts | 68° |
| 2026-05-08 14:04 | 22.65046 | 55.90592 | 34774 ft | 486 kts | 68° |
| 2026-05-08 14:04 | 22.67562 | 55.97356 | 34774 ft | 487 kts | 69° |
| 2026-05-08 14:05 | 22.70092 | 56.04169 | 34781 ft | 487 kts | 69° |
| 2026-05-08 14:05 | 22.72603 | 56.10938 | 34785 ft | 486 kts | 69° |
| 2026-05-08 14:06 | 22.75125 | 56.17749 | 34783 ft | 487 kts | 69° |
| 2026-05-08 14:06 | 22.77641 | 56.24554 | 34785 ft | 487 kts | 69° |
| 2026-05-08 14:07 | 22.80140 | 56.31323 | 34785 ft | 487 kts | 69° |
| 2026-05-08 14:07 | 22.82626 | 56.38133 | 34780 ft | 486 kts | 72° |
| 2026-05-08 14:08 | 22.84077 | 56.45276 | 34772 ft | 486 kts | 79° |
| 2026-05-08 14:08 | 22.85455 | 56.52452 | 34801 ft | 486 kts | 79° |
| 2026-05-08 14:09 | 22.86811 | 56.59591 | 34798 ft | 485 kts | 79° |
| 2026-05-08 14:09 | 22.88167 | 56.66750 | 34811 ft | 485 kts | 79° |
| 2026-05-08 14:10 | 22.89523 | 56.73923 | 34825 ft | 485 kts | 79° |
| 2026-05-08 14:10 | 22.90875 | 56.81093 | 34826 ft | 485 kts | 79° |
| 2026-05-08 14:11 | 22.92211 | 56.88198 | 34844 ft | 486 kts | 79° |
| 2026-05-08 14:11 | 22.93559 | 56.95390 | 34848 ft | 486 kts | 79° |
| 2026-05-08 14:12 | 22.94903 | 57.02575 | 34845 ft | 486 kts | 79° |
| 2026-05-08 14:12 | 22.96247 | 57.09778 | 34852 ft | 486 kts | 79° |
| 2026-05-08 14:13 | 22.97571 | 57.16893 | 34855 ft | 485 kts | 79° |
| 2026-05-08 14:13 | 22.98903 | 57.24073 | 34855 ft | 485 kts | 79° |
| 2026-05-08 14:14 | 23.00143 | 57.31261 | 34848 ft | 483 kts | 87° |
| 2026-05-08 14:14 | 23.00383 | 57.38558 | 34846 ft | 483 kts | 89° |
| 2026-05-08 14:15 | 23.00618 | 57.45833 | 34847 ft | 483 kts | 89° |
| 2026-05-08 14:15 | 23.00843 | 57.53075 | 34851 ft | 483 kts | 89° |
| 2026-05-08 14:16 | 23.01067 | 57.60367 | 34849 ft | 483 kts | 89° |
| 2026-05-08 14:16 | 23.01286 | 57.67640 | 34846 ft | 482 kts | 89° |
| 2026-05-08 14:17 | 23.01503 | 57.74930 | 34834 ft | 483 kts | 89° |
| 2026-05-08 14:17 | 23.01715 | 57.82173 | 34831 ft | 483 kts | 89° |
| 2026-05-08 14:18 | 23.01771 | 57.88243 | 34826 ft | 483 kts | 91° |
| 2026-05-08 14:18 | 23.01774 | 57.95525 | 34816 ft | 483 kts | 91° |
| 2026-05-08 14:19 | 23.01784 | 58.04049 | 34812 ft | 485 kts | 91° |
| 2026-05-08 14:19 | 23.01788 | 58.10154 | 34806 ft | 485 kts | 91° |
| 2026-05-08 14:20 | 23.01790 | 58.17475 | 34799 ft | 485 kts | 91° |
| 2026-05-08 14:20 | 23.01789 | 58.24760 | 34796 ft | 485 kts | 91° |
| 2026-05-08 14:21 | 23.01785 | 58.32082 | 34796 ft | 484 kts | 91° |
| 2026-05-08 14:21 | 23.01889 | 58.39414 | 34787 ft | 485 kts | 89° |
| 2026-05-08 14:22 | 23.02148 | 58.46689 | 34800 ft | 485 kts | 89° |
| 2026-05-08 14:22 | 23.02386 | 58.53983 | 34779 ft | 483 kts | 89° |
| 2026-05-08 14:23 | 23.02620 | 58.61284 | 34783 ft | 483 kts | 89° |
| 2026-05-08 14:23 | 23.02851 | 58.68573 | 34780 ft | 483 kts | 89° |
| 2026-05-08 14:24 | 23.03077 | 58.75813 | 34779 ft | 483 kts | 89° |
| 2026-05-08 14:24 | 23.03301 | 58.83084 | 34759 ft | 483 kts | 89° |
| 2026-05-08 14:25 | 23.03522 | 58.90367 | 34759 ft | 483 kts | 89° |
| 2026-05-08 14:25 | 23.03740 | 58.97673 | 34763 ft | 483 kts | 89° |
| 2026-05-08 14:26 | 23.03957 | 59.04901 | 34762 ft | 483 kts | 89° |
| 2026-05-08 14:26 | 23.04172 | 59.12180 | 34774 ft | 483 kts | 89° |
| 2026-05-08 14:27 | 23.04385 | 59.19492 | 34759 ft | 483 kts | 89° |
| 2026-05-08 14:27 | 23.04593 | 59.26773 | 34750 ft | 483 kts | 89° |
| 2026-05-08 14:28 | 23.04799 | 59.34040 | 34748 ft | 483 kts | 89° |
| 2026-05-08 14:28 | 23.04937 | 59.41289 | 34738 ft | 482 kts | 90° |
| 2026-05-08 14:29 | 23.05053 | 59.48575 | 34742 ft | 482 kts | 90° |
| 2026-05-08 14:29 | 23.05169 | 59.55849 | 34733 ft | 482 kts | 90° |
| 2026-05-08 14:30 | 23.05281 | 59.63131 | 34727 ft | 482 kts | 90° |
| 2026-05-08 14:30 | 23.05389 | 59.70372 | 34732 ft | 482 kts | 90° |
| 2026-05-08 14:31 | 23.05494 | 59.77651 | 34734 ft | 482 kts | 90° |
| 2026-05-08 14:31 | 23.05597 | 59.84935 | 34735 ft | 482 kts | 90° |
| 2026-05-08 14:32 | 23.05739 | 59.95791 | 34739 ft | 482 kts | 90° |
| 2026-05-08 14:32 | 23.05829 | 60.03062 | 34739 ft | 482 kts | 90° |
| 2026-05-08 14:33 | 23.05916 | 60.10366 | 34740 ft | 482 kts | 90° |
| 2026-05-08 14:33 | 23.05998 | 60.17585 | 34740 ft | 482 kts | 90° |
| 2026-05-08 14:34 | 23.06079 | 60.24869 | 34744 ft | 482 kts | 90° |
| 2026-05-08 14:34 | 23.06155 | 60.32145 | 34740 ft | 482 kts | 90° |
| 2026-05-08 14:35 | 23.06229 | 60.39430 | 34742 ft | 482 kts | 90° |
| 2026-05-08 14:35 | 23.06299 | 60.46692 | 34741 ft | 482 kts | 90° |
| 2026-05-08 14:36 | 23.06365 | 60.53972 | 34744 ft | 482 kts | 90° |
| 2026-05-08 14:36 | 23.06429 | 60.61242 | 34744 ft | 482 kts | 90° |
| 2026-05-08 14:37 | 23.06489 | 60.68446 | 34746 ft | 482 kts | 90° |
| 2026-05-08 14:37 | 23.06548 | 60.75739 | 34745 ft | 482 kts | 90° |
| 2026-05-08 14:38 | 23.06602 | 60.83013 | 34750 ft | 482 kts | 90° |
| 2026-05-08 14:38 | 23.06654 | 60.90290 | 34749 ft | 482 kts | 90° |
| 2026-05-08 14:39 | 23.06702 | 60.97556 | 34747 ft | 482 kts | 90° |
| 2026-05-08 14:39 | 23.06746 | 61.04799 | 34746 ft | 482 kts | 90° |
| 2026-05-08 14:40 | 23.06788 | 61.12085 | 34744 ft | 482 kts | 90° |
| 2026-05-08 14:40 | 23.06826 | 61.19383 | 34752 ft | 483 kts | 90° |
| 2026-05-08 14:41 | 23.06860 | 61.26647 | 34753 ft | 483 kts | 90° |
| 2026-05-08 14:41 | 23.06892 | 61.33898 | 34752 ft | 483 kts | 90° |
| 2026-05-08 14:42 | 23.06920 | 61.41177 | 34751 ft | 482 kts | 90° |
| 2026-05-08 14:42 | 23.06945 | 61.48463 | 34750 ft | 482 kts | 90° |
| 2026-05-08 14:43 | 23.06965 | 61.55729 | 34756 ft | 482 kts | 90° |
| 2026-05-08 14:43 | 23.06981 | 61.63008 | 34757 ft | 482 kts | 90° |
| 2026-05-08 14:44 | 23.06995 | 61.70303 | 34761 ft | 482 kts | 90° |
| 2026-05-08 14:44 | 23.07004 | 61.77567 | 34757 ft | 482 kts | 90° |
| 2026-05-08 14:45 | 23.07009 | 61.84796 | 34754 ft | 482 kts | 90° |
| 2026-05-08 14:45 | 23.07012 | 61.92101 | 34757 ft | 482 kts | 90° |
| 2026-05-08 14:46 | 23.07010 | 61.99371 | 34758 ft | 481 kts | 90° |
| 2026-05-08 14:46 | 23.07006 | 62.06588 | 34761 ft | 481 kts | 90° |
| 2026-05-08 14:47 | 23.06998 | 62.13860 | 34766 ft | 481 kts | 90° |
| 2026-05-08 14:47 | 23.06987 | 62.21145 | 34757 ft | 482 kts | 90° |
| 2026-05-08 14:48 | 23.06973 | 62.28414 | 34759 ft | 481 kts | 90° |
| 2026-05-08 14:48 | 23.06955 | 62.35597 | 34760 ft | 481 kts | 90° |
| 2026-05-08 14:49 | 23.06934 | 62.42854 | 34757 ft | 480 kts | 90° |
| 2026-05-08 14:49 | 23.06910 | 62.50116 | 34762 ft | 480 kts | 90° |
| 2026-05-08 14:50 | 23.06882 | 62.57372 | 34766 ft | 480 kts | 90° |
| 2026-05-08 14:50 | 23.06851 | 62.64616 | 34774 ft | 480 kts | 90° |
| 2026-05-08 14:51 | 23.06817 | 62.71876 | 34764 ft | 480 kts | 90° |
| 2026-05-08 14:51 | 23.06780 | 62.79089 | 34767 ft | 480 kts | 90° |
| 2026-05-08 14:52 | 23.06717 | 62.89930 | 34774 ft | 478 kts | 90° |
| 2026-05-08 14:53 | 23.06671 | 62.97151 | 34765 ft | 479 kts | 90° |
| 2026-05-08 14:53 | 23.06623 | 63.04385 | 34769 ft | 478 kts | 90° |
| 2026-05-08 14:54 | 23.06571 | 63.11598 | 34764 ft | 478 kts | 90° |
| 2026-05-08 14:54 | 23.06515 | 63.18768 | 34778 ft | 478 kts | 90° |
| 2026-05-08 14:55 | 23.06456 | 63.26015 | 34778 ft | 479 kts | 89° |
| 2026-05-08 14:55 | 23.06394 | 63.33255 | 34778 ft | 480 kts | 90° |
| 2026-05-08 14:56 | 23.06329 | 63.40477 | 34782 ft | 479 kts | 90° |
| 2026-05-08 14:56 | 23.06261 | 63.47712 | 34778 ft | 479 kts | 89° |
| 2026-05-08 14:57 | 23.06188 | 63.54926 | 34781 ft | 479 kts | 89° |
| 2026-05-08 14:57 | 23.06113 | 63.62180 | 34787 ft | 479 kts | 89° |
| 2026-05-08 14:58 | 23.06035 | 63.69395 | 34782 ft | 479 kts | 89° |
| 2026-05-08 14:58 | 23.05955 | 63.76599 | 34791 ft | 479 kts | 89° |
| 2026-05-08 14:59 | 23.05864 | 63.83843 | 34781 ft | 479 kts | 91° |
| 2026-05-08 14:59 | 23.04167 | 63.90806 | 34798 ft | 481 kts | 110° |
| 2026-05-08 14:59 | 23.02960 | 63.94177 | 34766 ft | 482 kts | 111° |
| 2026-05-08 15:00 | 23.00467 | 64.00922 | 34791 ft | 482 kts | 111° |
| 2026-05-08 15:00 | 22.97942 | 64.07629 | 34791 ft | 482 kts | 111° |
| 2026-05-08 15:01 | 22.95387 | 64.14395 | 34803 ft | 484 kts | 111° |
| 2026-05-08 15:01 | 22.92854 | 64.21093 | 34794 ft | 483 kts | 111° |
| 2026-05-08 15:02 | 22.90298 | 64.27840 | 34797 ft | 483 kts | 111° |
| 2026-05-08 15:02 | 22.87739 | 64.34586 | 34792 ft | 484 kts | 111° |
| 2026-05-08 15:03 | 22.85175 | 64.41336 | 34803 ft | 484 kts | 111° |
| 2026-05-08 15:03 | 22.82640 | 64.48000 | 34799 ft | 484 kts | 111° |
| 2026-05-08 15:04 | 22.80085 | 64.54704 | 34800 ft | 484 kts | 111° |
| 2026-05-08 15:04 | 22.77516 | 64.61438 | 34795 ft | 483 kts | 111° |
| 2026-05-08 15:05 | 22.74942 | 64.68169 | 34806 ft | 484 kts | 111° |
| 2026-05-08 15:05 | 22.72821 | 64.73717 | 34803 ft | 484 kts | 111° |
| 2026-05-08 15:06 | 22.69819 | 64.81549 | 34801 ft | 483 kts | 111° |
| 2026-05-08 15:06 | 22.67239 | 64.88271 | 34809 ft | 484 kts | 111° |
| 2026-05-08 15:07 | 22.65094 | 64.93853 | 34812 ft | 483 kts | 111° |
| 2026-05-08 15:07 | 22.62505 | 65.00579 | 34802 ft | 483 kts | 111° |
| 2026-05-08 15:08 | 22.59924 | 65.07276 | 34823 ft | 484 kts | 111° |
| 2026-05-08 15:08 | 22.57330 | 65.13998 | 34805 ft | 483 kts | 111° |
| 2026-05-08 15:09 | 22.54752 | 65.20667 | 34809 ft | 483 kts | 111° |
| 2026-05-08 15:09 | 22.52176 | 65.27320 | 34829 ft | 484 kts | 111° |
| 2026-05-08 15:10 | 22.49586 | 65.34001 | 34816 ft | 483 kts | 111° |
| 2026-05-08 15:10 | 22.46979 | 65.40718 | 34827 ft | 484 kts | 111° |
| 2026-05-08 15:11 | 22.44375 | 65.47417 | 34823 ft | 484 kts | 111° |
| 2026-05-08 15:11 | 22.41765 | 65.54122 | 34818 ft | 483 kts | 111° |
| 2026-05-08 15:12 | 22.39166 | 65.60786 | 34825 ft | 483 kts | 111° |
| 2026-05-08 15:12 | 22.36555 | 65.67473 | 34820 ft | 483 kts | 111° |
| 2026-05-08 15:13 | 22.33943 | 65.74155 | 34824 ft | 483 kts | 111° |
| 2026-05-08 15:13 | 22.31338 | 65.80809 | 34827 ft | 483 kts | 111° |
| 2026-05-08 15:14 | 22.28715 | 65.87499 | 34830 ft | 483 kts | 111° |
| 2026-05-08 15:14 | 22.26103 | 65.94151 | 34829 ft | 483 kts | 111° |
| 2026-05-08 15:15 | 22.23476 | 66.00832 | 34834 ft | 483 kts | 111° |
| 2026-05-08 15:15 | 22.20843 | 66.07517 | 34823 ft | 483 kts | 111° |
| 2026-05-08 15:16 | 22.18227 | 66.14152 | 34828 ft | 482 kts | 111° |
| 2026-05-08 15:16 | 22.15611 | 66.20775 | 34843 ft | 482 kts | 111° |
| 2026-05-08 15:17 | 22.12979 | 66.27433 | 34830 ft | 482 kts | 111° |
| 2026-05-08 15:17 | 22.10359 | 66.34054 | 34834 ft | 482 kts | 111° |
| 2026-05-08 15:18 | 22.07719 | 66.40713 | 34841 ft | 482 kts | 111° |
| 2026-05-08 15:18 | 22.05087 | 66.47342 | 34840 ft | 482 kts | 112° |
| 2026-05-08 15:19 | 22.02441 | 66.53993 | 34837 ft | 482 kts | 111° |
| 2026-05-08 15:19 | 21.99799 | 66.60630 | 34841 ft | 483 kts | 111° |
| 2026-05-08 15:20 | 21.97147 | 66.67283 | 34839 ft | 483 kts | 111° |
| 2026-05-08 15:20 | 21.94537 | 66.73821 | 34843 ft | 482 kts | 111° |
| 2026-05-08 15:21 | 21.91906 | 66.80404 | 34844 ft | 482 kts | 112° |
| 2026-05-08 15:21 | 21.89268 | 66.86994 | 34843 ft | 482 kts | 112° |
| 2026-05-08 15:22 | 21.86616 | 66.93612 | 34845 ft | 483 kts | 111° |
| 2026-05-08 15:22 | 21.83948 | 67.00258 | 34849 ft | 483 kts | 111° |
| 2026-05-08 15:23 | 21.81279 | 67.06901 | 34853 ft | 483 kts | 112° |
| 2026-05-08 15:23 | 21.78614 | 67.13524 | 34847 ft | 483 kts | 112° |
| 2026-05-08 15:24 | 21.75961 | 67.20106 | 34857 ft | 482 kts | 112° |
| 2026-05-08 15:24 | 21.73298 | 67.26706 | 34851 ft | 481 kts | 112° |
| 2026-05-08 15:25 | 21.70627 | 67.33315 | 34850 ft | 481 kts | 112° |
| 2026-05-08 15:25 | 21.67957 | 67.39915 | 34848 ft | 481 kts | 112° |
| 2026-05-08 15:26 | 21.65353 | 67.46342 | 34847 ft | 481 kts | 112° |
| 2026-05-08 15:26 | 21.62683 | 67.52923 | 34855 ft | 482 kts | 112° |
| 2026-05-08 15:27 | 21.60022 | 67.59474 | 34860 ft | 483 kts | 112° |
| 2026-05-08 15:27 | 21.57356 | 67.66026 | 34851 ft | 483 kts | 112° |
| 2026-05-08 15:28 | 21.54686 | 67.72581 | 34849 ft | 483 kts | 112° |
| 2026-05-08 15:28 | 21.51999 | 67.79170 | 34843 ft | 480 kts | 112° |
| 2026-05-08 15:29 | 21.49332 | 67.85700 | 34856 ft | 480 kts | 112° |
| 2026-05-08 15:29 | 21.46652 | 67.92254 | 34857 ft | 480 kts | 112° |
| 2026-05-08 15:30 | 21.43961 | 67.98824 | 34858 ft | 480 kts | 112° |
| 2026-05-08 15:30 | 21.41269 | 68.05391 | 34855 ft | 480 kts | 112° |
| 2026-05-08 15:31 | 21.38572 | 68.11960 | 34848 ft | 480 kts | 112° |
| 2026-05-08 15:31 | 21.35904 | 68.18448 | 34852 ft | 480 kts | 112° |
| 2026-05-08 15:32 | 21.33201 | 68.25017 | 34853 ft | 481 kts | 112° |
| 2026-05-08 15:32 | 21.30493 | 68.31584 | 34853 ft | 481 kts | 112° |
| 2026-05-08 15:33 | 21.27793 | 68.38128 | 34862 ft | 480 kts | 112° |
| 2026-05-08 15:33 | 21.25093 | 68.44661 | 34850 ft | 480 kts | 112° |
| 2026-05-08 15:34 | 21.22388 | 68.51198 | 34857 ft | 480 kts | 112° |
| 2026-05-08 15:34 | 21.19689 | 68.57713 | 34859 ft | 481 kts | 112° |
| 2026-05-08 15:35 | 21.16973 | 68.64258 | 34857 ft | 481 kts | 112° |
| 2026-05-08 15:35 | 21.14257 | 68.70796 | 34858 ft | 481 kts | 112° |
| 2026-05-08 15:36 | 21.11992 | 68.76243 | 34860 ft | 481 kts | 112° |
| 2026-05-08 15:36 | 21.08863 | 68.83757 | 34860 ft | 481 kts | 112° |
| 2026-05-08 15:37 | 21.06139 | 68.90292 | 34854 ft | 480 kts | 113° |
| 2026-05-08 15:37 | 21.03416 | 68.96814 | 34852 ft | 480 kts | 113° |
| 2026-05-08 15:38 | 21.00687 | 69.03345 | 34858 ft | 480 kts | 113° |
| 2026-05-08 15:38 | 20.97976 | 69.09828 | 34860 ft | 480 kts | 112° |
| 2026-05-08 15:39 | 20.95809 | 69.16546 | 34869 ft | 479 kts | 107° |
| 2026-05-08 15:39 | 20.93753 | 69.23344 | 34862 ft | 479 kts | 106° |
| 2026-05-08 15:40 | 20.92047 | 69.28996 | 34861 ft | 480 kts | 106° |
| 2026-05-08 15:40 | 20.89661 | 69.36888 | 34861 ft | 480 kts | 106° |
| 2026-05-08 15:41 | 20.87610 | 69.43662 | 34852 ft | 480 kts | 106° |
| 2026-05-08 15:41 | 20.85552 | 69.50449 | 34852 ft | 480 kts | 106° |
| 2026-05-08 15:42 | 20.83492 | 69.57231 | 34849 ft | 481 kts | 106° |
| 2026-05-08 15:42 | 20.81423 | 69.64033 | 34853 ft | 481 kts | 106° |
| 2026-05-08 15:43 | 20.79353 | 69.70826 | 34857 ft | 481 kts | 106° |
| 2026-05-08 15:43 | 20.77279 | 69.77624 | 34852 ft | 481 kts | 106° |
| 2026-05-08 15:44 | 20.75200 | 69.84424 | 34861 ft | 481 kts | 106° |
| 2026-05-08 15:44 | 20.73125 | 69.91205 | 34852 ft | 483 kts | 106° |
| 2026-05-08 15:45 | 20.71040 | 69.98004 | 34856 ft | 483 kts | 106° |
| 2026-05-08 15:45 | 20.69298 | 70.03679 | 34853 ft | 483 kts | 106° |